createdAt,value
2023-04-07T00:01:03.762Z,101342.72
2023-04-07T00:03:30.996Z,101344.31
2023-04-07T00:05:58.121Z,101345.75
2023-04-07T00:08:25.204Z,101350.13
2023-04-07T00:10:52.267Z,101342.75
2023-04-07T00:13:19.343Z,101343.28
2023-04-07T00:15:46.383Z,101351.88
2023-04-07T00:18:13.513Z,101341.69
2023-04-07T00:20:40.887Z,101348.53
2023-04-07T00:23:08.008Z,101349.16
2023-04-07T00:25:35.406Z,101349.09
2023-04-07T00:28:02.502Z,101335.63
2023-04-07T00:30:29.715Z,101351.56
2023-04-07T00:32:56.994Z,101354.91
2023-04-07T00:35:24.206Z,101355.16
2023-04-07T00:37:51.260Z,101358.44
2023-04-07T00:40:18.339Z,101353.03
2023-04-07T00:42:45.511Z,101358.25
2023-04-07T00:45:12.743Z,101352.25
2023-04-07T00:47:40.330Z,101344.19
2023-04-07T00:50:08.113Z,101342.66
2023-04-07T00:52:36.161Z,101342.28
2023-04-07T00:55:03.912Z,101347.16
2023-04-07T00:57:31.336Z,101355.78
2023-04-07T00:59:58.456Z,101355.16
2023-04-07T01:02:39.031Z,101360.31
2023-04-07T01:05:09.583Z,101357.88
2023-04-07T01:07:52.801Z,101361.44
2023-04-07T01:10:46.522Z,101357.78
2023-04-07T01:13:19.641Z,101352.63
2023-04-07T01:15:50.184Z,101356.97
2023-04-07T01:18:23.033Z,101356.53
2023-04-07T01:20:52.644Z,101352.09
2023-04-07T01:23:39.464Z,101342.63
2023-04-07T01:26:21.966Z,101345.94
2023-04-07T01:28:49.008Z,101353.78
2023-04-07T01:31:17.247Z,101360.00
2023-04-07T01:33:46.222Z,101346.28
2023-04-07T01:36:15.617Z,101347.59
2023-04-07T01:38:44.165Z,101351.16
2023-04-07T01:41:12.303Z,101350.41
2023-04-07T01:43:41.661Z,101356.38
2023-04-07T01:46:09.182Z,101352.03
2023-04-07T01:48:37.402Z,101350.50
2023-04-07T01:51:05.862Z,101348.59
2023-04-07T01:53:37.717Z,101358.69
2023-04-07T01:56:05.879Z,101352.00
2023-04-07T01:58:33.109Z,101358.97
2023-04-07T02:01:00.443Z,101353.91
2023-04-07T02:03:36.422Z,101355.13
2023-04-07T02:06:08.235Z,101358.41
2023-04-07T02:08:39.125Z,101350.78
2023-04-07T02:11:08.002Z,101353.56
2023-04-07T02:13:37.736Z,101348.25
2023-04-07T02:16:07.109Z,101356.28
2023-04-07T02:18:35.223Z,101351.13
2023-04-07T02:21:04.368Z,101351.81
2023-04-07T02:23:31.451Z,101357.25
2023-04-07T02:25:58.635Z,101366.69
2023-04-07T02:28:26.026Z,101359.03
2023-04-07T02:30:53.152Z,101367.66
2023-04-07T02:33:20.259Z,101368.56
2023-04-07T02:35:47.326Z,101360.78
2023-04-07T02:38:14.385Z,101361.31
2023-04-07T02:40:41.646Z,101358.94
2023-04-07T02:43:08.819Z,101364.94
2023-04-07T02:45:36.318Z,101366.69
2023-04-07T02:48:03.496Z,101360.38
2023-04-07T02:50:30.624Z,101362.94
2023-04-07T02:52:57.754Z,101357.88
2023-04-07T02:55:24.924Z,101369.03
2023-04-07T02:57:52.092Z,101368.22
2023-04-07T03:00:19.224Z,101361.44
2023-04-07T03:02:46.558Z,101362.28
2023-04-07T03:05:13.714Z,101357.44
2023-04-07T03:07:41.441Z,101360.94
2023-04-07T03:10:08.775Z,101363.25
2023-04-07T03:12:35.812Z,101373.69
2023-04-07T03:15:03.196Z,101375.72
2023-04-07T03:17:31.677Z,101372.25
2023-04-07T03:19:58.780Z,101368.44
2023-04-07T03:22:26.024Z,101354.63
2023-04-07T03:24:53.119Z,101370.25
2023-04-07T03:27:20.480Z,101366.63
2023-04-07T03:29:47.606Z,101371.84
2023-04-07T03:32:14.688Z,101375.34
2023-04-07T03:34:41.720Z,101370.94
2023-04-07T03:37:08.834Z,101373.75
2023-04-07T03:39:37.467Z,101377.94
2023-04-07T03:42:04.716Z,101373.44
2023-04-07T03:44:31.759Z,101376.91
2023-04-07T03:46:59.039Z,101376.91
2023-04-07T03:49:27.132Z,101373.59
2023-04-07T03:51:54.218Z,101372.81
2023-04-07T03:54:21.332Z,101376.13
2023-04-07T03:56:48.535Z,101368.41
2023-04-07T03:59:15.864Z,101377.00
2023-04-07T04:01:42.977Z,101374.25
2023-04-07T04:04:11.109Z,101368.22
2023-04-07T04:09:14.724Z,101366.59
2023-04-07T04:11:42.509Z,101373.56
2023-04-07T04:14:09.644Z,101365.69
2023-04-07T04:16:36.753Z,101377.13
2023-04-07T04:19:03.918Z,101386.91
2023-04-07T04:21:31.289Z,101376.25
2023-04-07T04:23:58.384Z,101391.78
2023-04-07T04:26:26.162Z,101377.16
2023-04-07T04:28:53.264Z,101395.59
2023-04-07T04:31:20.463Z,101386.66
2023-04-07T04:33:47.698Z,101399.41
2023-04-07T04:36:14.746Z,101400.47
2023-04-07T04:38:42.060Z,101396.03
2023-04-07T04:41:09.076Z,101406.38
2023-04-07T04:43:36.095Z,101402.38
2023-04-07T04:46:03.208Z,101412.94
2023-04-07T04:48:30.293Z,101413.59
2023-04-07T04:50:57.350Z,101408.53
2023-04-07T04:53:24.452Z,101413.78
2023-04-07T04:55:53.111Z,101417.34
2023-04-07T04:58:21.156Z,101420.75
2023-04-07T05:00:48.295Z,101429.09
2023-04-07T05:03:15.669Z,101426.38
2023-04-07T05:05:43.006Z,101421.00
2023-04-07T05:08:12.057Z,101427.22
2023-04-07T05:10:40.955Z,101422.13
2023-04-07T05:13:08.105Z,101426.53
2023-04-07T05:15:35.165Z,101427.59
2023-04-07T05:18:02.649Z,101424.28
2023-04-07T05:20:30.181Z,101414.44
2023-04-07T05:22:57.428Z,101438.91
2023-04-07T05:25:24.965Z,101429.38
2023-04-07T05:27:52.028Z,101439.16
2023-04-07T05:30:19.120Z,101443.75
2023-04-07T05:32:46.155Z,101440.31
2023-04-07T05:35:16.088Z,101439.59
2023-04-07T05:37:43.187Z,101435.13
2023-04-07T05:40:11.026Z,101443.16
2023-04-07T05:42:38.097Z,101441.06
2023-04-07T05:45:05.616Z,101445.56
2023-04-07T05:47:35.745Z,101442.91
2023-04-07T05:50:02.956Z,101443.28
2023-04-07T05:52:30.280Z,101446.63
2023-04-07T05:54:57.559Z,101444.19
2023-04-07T05:57:27.377Z,101449.44
2023-04-07T05:59:55.004Z,101451.97
2023-04-07T06:02:22.262Z,101459.69
2023-04-07T06:04:49.636Z,101452.56
2023-04-07T06:07:16.785Z,101463.69
2023-04-07T06:09:44.174Z,101466.31
2023-04-07T06:12:12.550Z,101464.41
2023-04-07T06:14:39.748Z,101454.59
2023-04-07T06:17:06.882Z,101466.03
2023-04-07T06:19:34.016Z,101466.31
2023-04-07T06:22:01.522Z,101472.38
2023-04-07T06:24:28.626Z,101476.56
2023-04-07T06:26:56.918Z,101473.34
2023-04-07T06:29:24.153Z,101480.47
2023-04-07T06:31:51.359Z,101472.63
2023-04-07T06:34:18.703Z,101467.31
2023-04-07T06:36:46.727Z,101470.69
2023-04-07T06:39:14.028Z,101481.59
2023-04-07T06:41:43.147Z,101477.97
2023-04-07T06:44:13.873Z,101472.94
2023-04-07T06:46:42.588Z,101482.13
2023-04-07T06:49:09.919Z,101485.84
2023-04-07T06:51:37.035Z,101497.16
2023-04-07T06:54:05.377Z,101502.84
2023-04-07T06:56:33.354Z,101493.25
2023-04-07T06:59:01.542Z,101504.59
2023-04-07T07:01:29.051Z,101504.13
2023-04-07T07:03:56.312Z,101507.69
2023-04-07T07:06:23.921Z,101509.47
2023-04-07T07:08:51.138Z,101510.22
2023-04-07T07:11:18.185Z,101510.50
2023-04-07T07:13:45.567Z,101509.13
2023-04-07T07:16:13.232Z,101510.84
2023-04-07T07:18:40.631Z,101506.84
2023-04-07T07:21:08.252Z,101512.47
2023-04-07T07:23:35.417Z,101518.59
2023-04-07T07:26:03.612Z,101510.19
2023-04-07T07:28:30.728Z,101521.56
2023-04-07T07:30:57.828Z,101530.03
2023-04-07T07:33:25.388Z,101526.50
2023-04-07T07:35:53.040Z,101526.16
2023-04-07T07:38:20.411Z,101528.56
2023-04-07T07:40:47.628Z,101529.09
2023-04-07T07:43:14.661Z,101533.22
2023-04-07T07:45:42.486Z,101533.91
2023-04-07T07:48:09.753Z,101532.63
2023-04-07T07:50:36.894Z,101536.94
2023-04-07T07:53:04.053Z,101544.00
2023-04-07T07:55:31.165Z,101550.44
2023-04-07T07:57:58.195Z,101546.47
2023-04-07T08:00:25.337Z,101535.44
2023-04-07T08:02:52.800Z,101557.84
2023-04-07T08:05:20.522Z,101551.28
2023-04-07T08:07:48.882Z,101551.97
2023-04-07T08:10:16.194Z,101560.91
2023-04-07T08:12:44.055Z,101571.06
2023-04-07T08:15:12.091Z,101549.50
2023-04-07T08:17:39.205Z,101566.09
2023-04-07T08:20:07.590Z,101575.72
2023-04-07T08:22:34.672Z,101575.25
2023-04-07T08:25:01.821Z,101579.50
2023-04-07T08:27:28.834Z,101571.59
2023-04-07T08:30:04.349Z,101577.47
2023-04-07T08:32:41.172Z,101587.31
2023-04-07T08:35:08.972Z,101574.94
2023-04-07T08:37:36.735Z,101576.69
2023-04-07T08:40:04.276Z,101575.47
2023-04-07T08:42:33.641Z,101587.13
2023-04-07T08:45:06.378Z,101593.44
2023-04-07T08:47:35.292Z,101592.50
2023-04-07T08:50:05.301Z,101594.94
2023-04-07T08:52:46.588Z,101592.19
2023-04-07T08:55:14.637Z,101600.78
2023-04-07T08:57:43.005Z,101601.84
2023-04-07T09:00:11.344Z,101601.53
2023-04-07T09:02:41.316Z,101616.66
2023-04-07T09:05:09.527Z,101618.75
2023-04-07T09:07:40.138Z,101622.38
2023-04-07T09:10:08.000Z,101614.44
2023-04-07T09:12:35.581Z,101626.97
2023-04-07T09:15:02.833Z,101631.31
2023-04-07T09:17:30.114Z,101633.13
2023-04-07T09:19:58.615Z,101621.47
2023-04-07T09:22:35.893Z,101626.97
2023-04-07T09:25:19.653Z,101642.81
2023-04-07T09:28:00.906Z,101633.44
2023-04-07T09:30:29.755Z,101629.63
2023-04-07T09:32:57.962Z,101629.50
2023-04-07T09:35:26.492Z,101633.97
2023-04-07T09:38:07.851Z,101635.34
2023-04-07T09:40:36.584Z,101632.25
2023-04-07T09:43:05.399Z,101633.97
2023-04-07T09:45:35.664Z,101640.38
2023-04-07T09:48:18.636Z,101629.84
2023-04-07T09:50:49.602Z,101636.00
2023-04-07T09:53:17.278Z,101640.53
2023-04-07T09:55:45.377Z,101635.13
2023-04-07T09:58:14.296Z,101635.44
2023-04-07T10:00:42.993Z,101639.16
2023-04-07T10:03:11.062Z,101643.72
2023-04-07T10:05:39.209Z,101643.81
2023-04-07T10:08:06.725Z,101649.72
2023-04-07T10:10:36.056Z,101646.44
2023-04-07T10:13:06.202Z,101640.78
2023-04-07T10:15:33.747Z,101649.88
2023-04-07T10:18:06.408Z,101648.97
2023-04-07T10:20:33.901Z,101640.00
2023-04-07T10:23:09.484Z,101651.59
2023-04-07T10:25:38.653Z,101654.91
2023-04-07T10:28:09.513Z,101665.31
2023-04-07T10:30:36.912Z,101663.72
2023-04-07T10:33:04.354Z,101665.47
2023-04-07T10:36:07.025Z,101669.22
2023-04-07T10:38:34.377Z,101670.97
2023-04-07T10:41:37.035Z,101666.78
2023-04-07T10:44:05.360Z,101679.09
2023-04-07T10:46:48.326Z,101687.44
2023-04-07T10:49:20.996Z,101689.84
2023-04-07T10:52:15.048Z,101678.25
2023-04-07T10:54:43.115Z,101670.19
2023-04-07T10:57:12.232Z,101678.00
2023-04-07T10:59:59.442Z,101680.25
2023-04-07T11:02:27.453Z,101690.38
2023-04-07T11:04:55.382Z,101686.03
2023-04-07T11:07:50.196Z,101677.44
2023-04-07T11:10:19.187Z,101691.50
2023-04-07T11:12:59.532Z,101687.97
2023-04-07T11:15:26.979Z,101693.88
2023-04-07T11:18:13.045Z,101685.25
2023-04-07T11:20:55.079Z,101701.97
2023-04-07T11:23:24.077Z,101700.09
2023-04-07T11:25:54.072Z,101707.31
2023-04-07T11:28:21.216Z,101708.56
2023-04-07T11:30:51.990Z,101703.97
2023-04-07T11:33:24.226Z,101720.69
2023-04-07T11:35:56.874Z,101705.28
2023-04-07T11:38:30.043Z,101712.91
2023-04-07T11:40:57.422Z,101708.00
2023-04-07T11:43:28.184Z,101714.88
2023-04-07T11:46:17.046Z,101708.16
2023-04-07T11:48:45.728Z,101716.06
2023-04-07T11:51:17.677Z,101715.50
2023-04-07T11:53:44.887Z,101727.56
2023-04-07T11:56:18.879Z,101708.97
2023-04-07T11:58:54.004Z,101717.22
2023-04-07T12:01:24.857Z,101726.94
2023-04-07T12:03:57.474Z,101723.69
2023-04-07T12:06:38.867Z,101736.94
2023-04-07T12:09:06.152Z,101728.78
2023-04-07T12:11:34.643Z,101725.63
2023-04-07T12:14:04.929Z,101736.94
2023-04-07T12:16:32.190Z,101730.81
2023-04-07T12:18:59.351Z,101738.34
2023-04-07T12:21:26.715Z,101745.06
2023-04-07T12:23:54.098Z,101742.00
2023-04-07T12:26:23.394Z,101742.63
2023-04-07T12:28:51.317Z,101748.09
2023-04-07T12:31:18.316Z,101741.50
2023-04-07T12:33:45.484Z,101750.16
2023-04-07T12:36:13.222Z,101748.78
2023-04-07T12:38:40.852Z,101753.06
2023-04-07T12:41:08.603Z,101757.38
2023-04-07T12:43:36.046Z,101746.38
2023-04-07T12:46:03.194Z,101765.97
2023-04-07T12:48:30.405Z,101765.59
2023-04-07T12:50:57.521Z,101764.97
2023-04-07T12:53:27.701Z,101762.00
2023-04-07T12:55:56.303Z,101766.41
2023-04-07T12:58:24.982Z,101765.84
2023-04-07T13:00:53.393Z,101771.72
2023-04-07T13:03:20.745Z,101769.41
2023-04-07T13:05:48.592Z,101761.66
2023-04-07T13:08:15.733Z,101774.84
2023-04-07T13:10:43.238Z,101765.03
2023-04-07T13:13:10.374Z,101779.44
2023-04-07T13:15:37.472Z,101777.84
2023-04-07T13:18:04.577Z,101778.63
2023-04-07T13:20:31.799Z,101779.88
2023-04-07T13:23:07.826Z,101781.75
2023-04-07T13:25:37.446Z,101776.66
2023-04-07T13:28:04.868Z,101781.75
2023-04-07T13:30:31.955Z,101788.59
2023-04-07T13:32:59.257Z,101781.53
2023-04-07T13:35:26.552Z,101788.38
2023-04-07T13:37:54.308Z,101781.84
2023-04-07T13:40:21.395Z,101785.50
2023-04-07T13:42:48.551Z,101783.88
2023-04-07T13:45:15.778Z,101784.47
2023-04-07T13:47:43.150Z,101783.19
2023-04-07T13:50:10.958Z,101783.53
2023-04-07T13:52:38.289Z,101793.50
2023-04-07T13:55:06.147Z,101791.59
2023-04-07T13:57:33.262Z,101786.19
2023-04-07T14:00:00.656Z,101786.69
2023-04-07T14:02:30.262Z,101783.28
2023-04-07T14:04:57.814Z,101785.22
2023-04-07T14:07:25.580Z,101779.88
2023-04-07T14:09:54.381Z,101786.06
2023-04-07T14:12:22.225Z,101786.06
2023-04-07T14:14:52.099Z,101785.88
2023-04-07T14:17:19.160Z,101786.69
2023-04-07T14:19:46.525Z,101790.22
2023-04-07T14:22:15.007Z,101786.81
2023-04-07T14:24:43.107Z,101792.22
2023-04-07T14:27:11.162Z,101795.75
2023-04-07T14:29:38.202Z,101795.03
2023-04-07T14:32:05.264Z,101797.72
2023-04-07T14:34:32.369Z,101799.72
2023-04-07T14:36:59.806Z,101799.84
2023-04-07T14:39:27.074Z,101796.13
2023-04-07T14:41:54.505Z,101793.16
2023-04-07T14:44:22.115Z,101796.81
2023-04-07T14:46:49.257Z,101794.31
2023-04-07T14:49:16.374Z,101795.75
2023-04-07T14:51:43.937Z,101795.91
2023-04-07T14:54:11.429Z,101795.19
2023-04-07T14:56:38.501Z,101800.81
2023-04-07T14:59:05.756Z,101801.66
2023-04-07T15:01:32.929Z,101812.34
2023-04-07T15:04:01.006Z,101808.53
2023-04-07T15:06:28.208Z,101812.81
2023-04-07T15:08:55.356Z,101812.22
2023-04-07T15:11:22.660Z,101808.59
2023-04-07T15:13:49.951Z,101807.44
2023-04-07T15:16:17.322Z,101808.16
2023-04-07T15:18:47.060Z,101815.75
2023-04-07T15:21:15.442Z,101819.50
2023-04-07T15:23:43.169Z,101827.53
2023-04-07T15:26:10.396Z,101811.53
2023-04-07T15:28:38.343Z,101810.63
2023-04-07T15:31:09.980Z,101825.41
2023-04-07T15:33:38.608Z,101817.44
2023-04-07T15:36:07.162Z,101820.13
2023-04-07T15:38:34.893Z,101820.84
2023-04-07T15:41:01.993Z,101812.91
2023-04-07T15:43:29.190Z,101818.03
2023-04-07T15:45:56.453Z,101817.22
2023-04-07T15:48:24.169Z,101814.34
2023-04-07T15:50:52.843Z,101822.13
2023-04-07T15:53:20.002Z,101814.28
2023-04-07T15:55:47.124Z,101821.22
2023-04-07T15:58:14.338Z,101823.13
2023-04-07T16:00:42.504Z,101830.44
2023-04-07T16:03:10.484Z,101821.69
2023-04-07T16:05:38.065Z,101832.66
2023-04-07T16:08:05.346Z,101831.56
2023-04-07T16:10:32.475Z,101833.06
2023-04-07T16:12:59.598Z,101835.78
2023-04-07T16:17:59.861Z,101823.72
2023-04-07T16:20:27.387Z,101833.25
2023-04-07T16:22:55.114Z,101835.78
2023-04-07T16:25:22.324Z,101836.72
2023-04-07T16:27:52.374Z,101835.06
2023-04-07T16:30:19.932Z,101843.19
2023-04-07T16:32:47.273Z,101838.81
2023-04-07T16:35:15.232Z,101842.72
2023-04-07T16:37:45.730Z,101847.13
2023-04-07T16:40:13.481Z,101847.56
2023-04-07T16:42:41.403Z,101852.69
2023-04-07T16:45:08.784Z,101849.16
2023-04-07T16:47:37.522Z,101857.88
2023-04-07T16:50:05.298Z,101858.00
2023-04-07T16:52:32.360Z,101865.94
2023-04-07T16:55:00.572Z,101863.50
2023-04-07T16:57:27.810Z,101867.66
2023-04-07T16:59:55.392Z,101869.50
2023-04-07T17:02:22.739Z,101872.78
2023-04-07T17:04:49.909Z,101868.56
2023-04-07T17:07:16.920Z,101874.78
2023-04-07T17:09:44.514Z,101871.00
2023-04-07T17:12:12.203Z,101879.19
2023-04-07T17:14:39.580Z,101882.31
2023-04-07T17:17:06.703Z,101883.13
2023-04-07T17:19:33.863Z,101877.13
2023-04-07T17:22:00.994Z,101877.06
2023-04-07T17:24:28.162Z,101891.81
2023-04-07T17:26:55.515Z,101899.31
2023-04-07T17:29:28.698Z,101905.53
2023-04-07T17:31:56.507Z,101906.78
2023-04-07T17:34:23.813Z,101903.50
2023-04-07T17:36:51.600Z,101894.81
2023-04-07T17:39:18.793Z,101920.13
2023-04-07T17:41:47.516Z,101912.31
2023-04-07T17:44:14.924Z,101910.50
2023-04-07T17:46:42.859Z,101917.34
2023-04-07T17:49:10.001Z,101923.28
2023-04-07T17:51:37.318Z,101929.09
2023-04-07T17:54:04.334Z,101939.06
2023-04-07T17:56:31.488Z,101937.94
2023-04-07T17:58:58.657Z,101930.22
2023-04-07T18:01:25.738Z,101930.88
2023-04-07T18:03:53.510Z,101936.88
2023-04-07T18:06:21.799Z,101938.50
2023-04-07T18:08:49.189Z,101940.22
2023-04-07T18:11:17.394Z,101937.69
2023-04-07T18:13:44.957Z,101942.72
2023-04-07T18:16:17.286Z,101946.09
2023-04-07T18:18:46.391Z,101949.69
2023-04-07T18:21:13.345Z,101950.28
2023-04-07T18:23:40.387Z,101949.25
2023-04-07T18:26:07.406Z,101948.63
2023-04-07T18:28:35.269Z,101941.66
2023-04-07T18:31:05.560Z,101948.78
2023-04-07T18:33:33.248Z,101945.25
2023-04-07T18:36:03.459Z,101957.78
2023-04-07T18:38:30.904Z,101953.75
2023-04-07T18:40:58.052Z,101953.75
2023-04-07T18:43:26.521Z,101954.38
2023-04-07T18:45:54.231Z,101976.59
2023-04-07T18:48:21.891Z,101980.16
2023-04-07T18:50:52.929Z,101982.81
2023-04-07T18:53:24.234Z,101978.13
2023-04-07T18:55:51.522Z,101988.53
2023-04-07T18:58:19.364Z,101994.69
2023-04-07T19:00:47.555Z,101987.34
2023-04-07T19:03:14.962Z,101992.78
2023-04-07T19:05:42.775Z,102002.00
2023-04-07T19:08:11.291Z,102006.31
2023-04-07T19:10:38.377Z,102011.47
2023-04-07T19:13:05.738Z,101991.22
2023-04-07T19:15:41.461Z,102000.44
2023-04-07T19:18:08.552Z,102017.13
2023-04-07T19:20:35.661Z,102024.91
2023-04-07T19:23:03.286Z,102015.94
2023-04-07T19:25:31.311Z,102019.53
2023-04-07T19:27:58.829Z,102019.63
2023-04-07T19:30:26.115Z,102024.22
2023-04-07T19:32:53.997Z,102016.53
2023-04-07T19:35:21.188Z,102018.34
2023-04-07T19:37:48.494Z,102031.84
2023-04-07T19:40:16.046Z,102020.00
2023-04-07T19:42:43.366Z,102034.56
2023-04-07T19:45:10.833Z,102037.25
2023-04-07T19:47:38.610Z,102034.31
2023-04-07T19:50:06.413Z,102033.34
2023-04-07T19:52:33.439Z,102042.06
2023-04-07T19:55:02.170Z,102035.22
2023-04-07T19:57:31.070Z,102040.13
2023-04-07T19:59:58.163Z,102040.84
2023-04-07T20:02:25.719Z,102041.81
2023-04-07T20:04:54.129Z,102046.09
2023-04-07T20:07:22.658Z,102060.66
2023-04-07T20:09:54.178Z,102057.13
2023-04-07T20:12:21.402Z,102052.75
2023-04-07T20:14:48.700Z,102058.63
2023-04-07T20:17:15.858Z,102059.78
2023-04-07T20:19:43.407Z,102050.16
2023-04-07T20:22:10.411Z,102063.09
2023-04-07T20:24:38.796Z,102054.53
2023-04-07T20:27:06.120Z,102056.19
2023-04-07T20:29:33.118Z,102057.69
2023-04-07T20:32:00.522Z,102082.19
2023-04-07T20:34:27.586Z,102080.53
2023-04-07T20:36:55.141Z,102076.16
2023-04-07T20:39:22.627Z,102079.69
2023-04-07T20:41:49.668Z,102072.72
2023-04-07T20:44:16.823Z,102062.28
2023-04-07T20:46:46.072Z,102078.22
2023-04-07T20:49:13.216Z,102073.63
2023-04-07T20:51:40.331Z,102077.78
2023-04-07T20:54:07.762Z,102079.81
2023-04-07T20:59:27.097Z,102088.66
2023-04-07T21:01:54.231Z,102082.19
2023-04-07T21:04:21.538Z,102071.56
2023-04-07T21:06:48.731Z,102088.69
2023-04-07T21:09:16.112Z,102096.44
2023-04-07T21:11:43.264Z,102083.81
2023-04-07T21:14:10.482Z,102086.16
2023-04-07T21:16:37.563Z,102095.72
2023-04-07T21:19:06.262Z,102092.13
2023-04-07T21:21:33.997Z,102094.50
2023-04-07T21:24:01.457Z,102083.72
2023-04-07T21:26:28.506Z,102092.41
2023-04-07T21:28:55.626Z,102100.72
2023-04-07T21:31:24.344Z,102086.81
2023-04-07T21:33:52.759Z,102088.31
2023-04-07T21:36:19.898Z,102083.84
2023-04-07T21:38:47.775Z,102099.34
2023-04-07T21:41:15.409Z,102106.72
2023-04-07T21:43:42.955Z,102098.97
2023-04-07T21:46:10.510Z,102108.16
2023-04-07T21:48:37.605Z,102103.34
2023-04-07T21:51:04.650Z,102109.31
2023-04-07T21:53:32.316Z,102095.22
2023-04-07T21:55:59.342Z,102105.63
2023-04-07T21:58:26.460Z,102096.47
2023-04-07T22:00:54.130Z,102114.81
2023-04-07T22:03:21.915Z,102113.88
2023-04-07T22:05:49.144Z,102121.41
2023-04-07T22:08:16.668Z,102112.47
2023-04-07T22:10:44.341Z,102110.72
2023-04-07T22:13:11.382Z,102111.66
2023-04-07T22:15:38.428Z,102112.47
2023-04-07T22:18:06.885Z,102112.41
2023-04-07T22:20:34.079Z,102115.88
2023-04-07T22:23:01.316Z,102136.94
2023-04-07T22:25:28.521Z,102136.94
2023-04-07T22:27:56.793Z,102139.19
2023-04-07T22:30:25.135Z,102141.31
2023-04-07T22:32:52.297Z,102138.19
2023-04-07T22:35:19.564Z,102131.91
2023-04-07T22:37:46.708Z,102147.84
2023-04-07T22:40:14.366Z,102149.44
2023-04-07T22:42:41.473Z,102144.97
2023-04-07T22:45:09.224Z,102150.13
2023-04-07T22:47:36.531Z,102152.31
2023-04-07T22:50:03.842Z,102156.66
2023-04-07T22:52:31.133Z,102145.81
2023-04-07T22:54:58.210Z,102162.56
2023-04-07T22:57:26.186Z,102151.63
2023-04-07T22:59:55.575Z,102161.94
2023-04-07T23:02:22.916Z,102164.44
2023-04-07T23:04:51.013Z,102157.19
2023-04-07T23:07:18.063Z,102155.22
2023-04-07T23:09:45.303Z,102147.56
2023-04-07T23:12:13.150Z,102166.50
2023-04-07T23:14:40.358Z,102161.13
2023-04-07T23:17:07.695Z,102156.28
2023-04-07T23:19:34.698Z,102154.75
2023-04-07T23:22:01.814Z,102168.84
2023-04-07T23:24:28.838Z,102169.53
2023-04-07T23:26:56.905Z,102159.41
2023-04-07T23:29:24.118Z,102165.22
2023-04-07T23:31:51.229Z,102165.53
2023-04-07T23:34:18.356Z,102163.75
2023-04-07T23:36:45.655Z,102171.50
2023-04-07T23:39:13.463Z,102172.78
2023-04-07T23:41:40.933Z,102173.81
2023-04-07T23:44:08.418Z,102157.63
2023-04-07T23:46:35.512Z,102175.53
2023-04-07T23:49:02.793Z,102173.69
2023-04-07T23:51:30.618Z,102176.63
2023-04-07T23:53:57.700Z,102169.41
2023-04-07T23:56:25.244Z,102173.44
2023-04-07T23:58:52.321Z,102171.06
